Time;durP1;ratioP1;P1;durP2;ratioP2;P2;SDS_P1;SDS_P2;PMS_P1;PMS_P2;Temp;Humidity;BMP_temperature;BMP_pressure;BME280_temperature;BME280_humidity;BME280_pressure;Samples;Min_cycle;Max_cycle;Signal;HPM_P1;HPM_P2
2023/09/05 00:00:47;;;;;;;4.23;3.10;;;;;;;19.23;59.27;156306.53;4968480;28;20454;-80
2023/09/05 00:03:16;;;;;;;4.00;3.60;;;;;;;19.31;58.78;156326.06;4966325;28;20864;-80
2023/09/05 00:05:43;;;;;;;3.40;3.10;;;;;;;19.34;58.20;156333.88;4980047;28;20520;-80
2023/09/05 00:08:10;;;;;;;3.10;2.80;;;;;;;19.33;57.78;156332.56;4996157;28;20487;-80
2023/09/05 00:10:36;;;;;;;4.43;3.30;;;;;;;19.31;57.88;156327.38;5008591;28;20849;-80
2023/09/05 00:13:05;;;;;;;4.50;3.00;;;;;;;19.27;57.74;156316.91;4974220;28;20526;-80
2023/09/05 00:15:33;;;;;;;3.47;3.17;;;;;;;19.23;57.93;156306.53;4984014;28;20456;-80
2023/09/05 00:18:00;;;;;;;3.30;2.77;;;;;;;19.22;57.68;156303.88;4974206;28;21159;-81
2023/09/05 00:20:26;;;;;;;4.20;2.90;;;;;;;19.28;57.27;156319.53;4992654;28;20507;-80
2023/09/05 00:22:53;;;;;;;2.90;2.40;;;;;;;19.25;57.17;156311.72;4972463;28;20465;-80
2023/09/05 00:25:20;;;;;;;3.90;2.63;;;;;;;19.20;57.27;156298.69;4998767;28;20558;-80
2023/09/05 00:27:46;;;;;;;3.87;3.00;;;;;;;19.17;57.09;156289.53;4971207;28;20467;-80
2023/09/05 00:30:14;;;;;;;3.00;2.70;;;;;;;19.24;57.04;156309.13;4973580;28;20441;-79
2023/09/05 00:32:42;;;;;;;3.17;2.50;;;;;;;19.16;57.46;156288.28;4978986;28;20263;-80
2023/09/05 00:35:11;;;;;;;2.97;2.57;;;;;;;19.20;57.29;156298.69;4980261;28;20449;-80
2023/09/05 00:37:37;;;;;;;4.47;3.00;;;;;;;19.13;57.37;156280.47;4992618;28;20468;-80
2023/09/05 00:40:05;;;;;;;3.73;2.93;;;;;;;19.06;57.88;156260.91;5008511;28;20436;-80
2023/09/05 00:42:32;;;;;;;3.70;2.83;;;;;;;19.04;58.10;156255.66;4969626;28;20457;-80
2023/09/05 00:44:58;;;;;;;2.97;2.50;;;;;;;18.94;58.57;156230.94;4991102;28;20567;-81
2023/09/05 00:47:30;;;;;;;3.30;3.00;;;;;;;18.91;58.65;156223.09;4970607;28;20528;-80
2023/09/05 00:49:58;;;;;;;4.40;3.23;;;;;;;18.89;59.00;156217.91;4990381;28;20479;-80
2023/09/05 00:52:26;;;;;;;4.20;3.00;;;;;;;18.82;59.33;156199.69;4981594;28;20520;-80
2023/09/05 00:54:54;;;;;;;3.40;2.47;;;;;;;18.77;59.84;156186.66;4976966;28;20520;-80
2023/09/05 00:57:21;;;;;;;4.20;2.77;;;;;;;18.87;59.52;156212.72;4997093;28;20825;-81
2023/09/05 00:59:48;;;;;;;3.20;2.90;;;;;;;18.81;60.20;156197.06;5003569;28;20454;-81
2023/09/05 01:02:14;;;;;;;3.50;3.20;;;;;;;18.72;60.62;156173.59;5008453;28;20460;-80
2023/09/05 01:04:43;;;;;;;3.53;3.00;;;;;;;18.69;60.92;156167.06;5011814;28;20472;-80
2023/09/05 01:07:14;;;;;;;3.23;2.93;;;;;;;18.65;61.50;156156.66;5005663;28;20483;-81
2023/09/05 01:09:48;;;;;;;2.93;2.63;;;;;;;18.67;61.27;156160.56;4975713;28;20519;-81
2023/09/05 01:12:15;;;;;;;3.63;2.97;;;;;;;18.69;61.46;156167.06;4991912;28;20517;-81
2023/09/05 01:14:42;;;;;;;3.23;2.50;;;;;;;18.71;61.46;156171.00;4974603;28;20809;-81
2023/09/05 01:17:08;;;;;;;3.17;2.77;;;;;;;18.70;61.62;156168.38;5000555;28;20457;-81
2023/09/05 01:19:39;;;;;;;3.70;2.90;;;;;;;18.65;62.35;156155.38;4970560;28;20456;-81
2023/09/05 01:22:17;;;;;;;3.03;2.73;;;;;;;18.59;62.31;156139.72;4990632;28;20489;-81
2023/09/05 01:24:47;;;;;;;10.33;2.83;;;;;;;18.55;62.58;156129.31;4969841;28;20860;-81
2023/09/05 01:27:17;;;;;;;4.00;3.40;;;;;;;18.48;63.07;156112.38;4990397;28;20458;-81
2023/09/05 01:29:46;;;;;;;3.33;2.77;;;;;;;18.40;63.53;156091.47;4990370;28;20473;-81
2023/09/05 01:32:12;;;;;;;5.57;2.93;;;;;;;18.43;63.51;156099.28;4982321;28;20986;-81
2023/09/05 01:34:40;;;;;;;4.90;3.70;;;;;;;18.54;63.35;156126.69;4963877;28;20445;-80
2023/09/05 01:37:10;;;;;;;3.53;3.20;;;;;;;18.46;63.65;156105.81;4971628;28;20458;-80
2023/09/05 01:39:36;;;;;;;3.50;3.20;;;;;;;18.35;64.09;156077.19;4984212;28;20515;-80
2023/09/05 01:42:05;;;;;;;4.87;3.37;;;;;;;18.39;64.00;156087.59;4989812;28;20556;-81
2023/09/05 01:44:32;;;;;;;3.60;2.90;;;;;;;18.36;64.29;156079.75;4994878;28;20480;-80
2023/09/05 01:46:59;;;;;;;3.60;3.23;;;;;;;18.42;64.19;156096.72;4970123;28;20472;-80
2023/09/05 01:49:25;;;;;;;3.87;2.80;;;;;;;18.43;64.10;156097.97;4996581;28;20481;-80
2023/09/05 01:51:52;;;;;;;3.07;2.77;;;;;;;18.35;64.57;156077.19;4994218;28;20472;-81
2023/09/05 01:54:18;;;;;;;4.73;3.40;;;;;;;18.29;64.72;156061.53;4989228;28;20461;-81
2023/09/05 01:56:46;;;;;;;3.60;3.23;;;;;;;18.23;64.60;156048.53;4953480;28;20910;-80
2023/09/05 01:59:14;;;;;;;3.23;2.93;;;;;;;18.22;64.64;156044.59;4952250;28;20464;-81
2023/09/05 02:01:41;;;;;;;3.13;2.83;;;;;;;18.21;64.75;156042.00;4962485;28;20469;-81
2023/09/05 02:04:07;;;;;;;2.90;2.53;;;;;;;18.20;64.70;156040.69;4990525;28;20461;-81
2023/09/05 02:06:34;;;;;;;4.50;3.07;;;;;;;18.18;64.89;156035.50;4992531;28;20480;-81
2023/09/05 02:09:02;;;;;;;3.63;3.13;;;;;;;18.24;64.33;156051.09;5004084;28;20473;-80
2023/09/05 02:11:30;;;;;;;3.97;3.27;;;;;;;18.22;64.99;156045.91;4972736;28;20465;-81
2023/09/05 02:13:57;;;;;;;3.70;3.10;;;;;;;18.15;64.89;156027.69;5000873;28;20556;-80
2023/09/05 02:16:25;;;;;;;3.27;2.97;;;;;;;18.18;64.62;156034.19;4993637;28;20547;-81
2023/09/05 02:18:53;;;;;;;4.43;3.10;;;;;;;18.14;64.80;156025.06;4979821;28;20445;-81
2023/09/05 02:21:19;;;;;;;3.33;2.77;;;;;;;18.21;64.32;156043.28;4992022;28;20535;-81
2023/09/05 02:23:46;;;;;;;3.70;2.83;;;;;;;18.20;64.39;156039.38;4958811;28;20445;-81
2023/09/05 02:26:14;;;;;;;3.67;3.17;;;;;;;18.19;64.48;156036.75;4985756;28;20927;-81
2023/09/05 02:28:41;;;;;;;3.50;3.13;;;;;;;18.16;64.74;156029.00;4982691;28;20477;-81
2023/09/05 02:31:08;;;;;;;4.20;3.10;;;;;;;18.13;64.92;156022.50;4967734;28;20477;-81
2023/09/05 02:33:36;;;;;;;7.33;2.97;;;;;;;18.08;65.26;156009.41;4992343;28;20437;-81
2023/09/05 02:36:07;;;;;;;3.47;3.17;;;;;;;18.13;64.77;156022.50;5003407;28;20563;-81
2023/09/05 02:38:34;;;;;;;4.23;3.73;;;;;;;18.06;64.99;156004.22;4976101;28;20458;-81
2023/09/05 02:41:00;;;;;;;3.00;2.70;;;;;;;18.09;65.29;156012.03;4977347;28;20461;-81
2023/09/05 02:43:27;;;;;;;3.70;2.60;;;;;;;18.08;65.18;156009.41;4986728;28;20824;-80
2023/09/05 02:45:53;;;;;;;3.40;2.80;;;;;;;18.04;65.72;155999.03;4962934;28;20448;-81
2023/09/05 02:48:20;;;;;;;4.20;2.80;;;;;;;18.04;65.78;155997.72;4992165;28;20436;-81
2023/09/05 02:50:48;;;;;;;3.27;2.80;;;;;;;18.01;65.61;155991.22;4955102;28;20492;-81
2023/09/05 02:53:14;;;;;;;3.37;3.00;;;;;;;18.01;65.64;155991.22;4990339;28;20445;-81
2023/09/05 02:55:43;;;;;;;3.80;2.87;;;;;;;18.00;66.07;155988.59;4965836;28;20449;-81
2023/09/05 02:58:10;;;;;;;3.80;2.90;;;;;;;18.06;65.95;156002.91;4933486;28;20516;-80
2023/09/05 03:00:37;;;;;;;3.70;2.83;;;;;;;18.03;66.10;155996.41;4965204;28;20442;-80
2023/09/05 03:03:05;;;;;;;3.63;2.90;;;;;;;18.07;65.70;156005.53;4971273;28;20461;-80
2023/09/05 03:05:32;;;;;;;3.10;2.80;;;;;;;18.01;66.24;155991.22;4977794;28;20509;-80
2023/09/05 03:08:00;;;;;;;9.93;3.10;;;;;;;18.00;66.53;155988.59;4976251;28;20476;-80
2023/09/05 03:10:26;;;;;;;4.80;3.23;;;;;;;17.91;66.74;155965.16;4966608;28;20466;-80
2023/09/05 03:12:53;;;;;;;4.33;3.10;;;;;;;17.87;67.13;155954.72;4970676;28;20526;-80
2023/09/05 03:15:20;;;;;;;3.30;3.00;;;;;;;17.92;67.05;155966.50;4969025;28;20518;-80
2023/09/05 03:17:48;;;;;;;4.23;3.43;;;;;;;17.88;67.61;155956.03;4973220;28;20461;-80
2023/09/05 03:20:15;;;;;;;3.57;2.97;;;;;;;17.86;67.30;155952.16;4961918;28;20473;-81
2023/09/05 03:22:42;;;;;;;3.97;3.57;;;;;;;17.81;67.85;155937.84;4965947;28;20516;-81
2023/09/05 03:25:10;;;;;;;5.10;3.27;;;;;;;17.78;67.75;155931.31;4984450;28;20529;-80
2023/09/05 03:27:39;;;;;;;3.37;2.80;;;;;;;17.74;67.98;155920.88;4976862;28;20458;-80
2023/09/05 03:30:08;;;;;;;4.37;3.30;;;;;;;17.74;67.98;155920.88;4961843;28;20536;-80
2023/09/05 03:32:35;;;;;;;3.50;3.17;;;;;;;17.76;68.23;155924.81;4976398;28;20464;-80
2023/09/05 03:35:02;;;;;;;4.13;3.30;;;;;;;17.76;68.22;155924.81;4978282;28;20464;-80
2023/09/05 03:37:29;;;;;;;3.50;3.20;;;;;;;17.77;68.45;155927.38;4976695;28;20457;-80
2023/09/05 03:39:56;;;;;;;3.63;3.23;;;;;;;17.70;68.40;155910.50;4987375;28;21041;-82
2023/09/05 03:42:24;;;;;;;4.30;3.13;;;;;;;17.69;68.51;155907.88;4972004;28;20456;-82
2023/09/05 03:44:52;;;;;;;3.73;3.00;;;;;;;17.67;69.19;155901.38;4943297;28;20458;-82
2023/09/05 03:47:18;;;;;;;4.37;3.40;;;;;;;17.60;69.33;155884.47;4966454;28;21053;-83
2023/09/05 03:49:45;;;;;;;5.03;2.90;;;;;;;17.67;69.21;155902.69;4969341;28;20504;-82
2023/09/05 03:52:11;;;;;;;3.33;2.90;;;;;;;17.62;69.53;155889.66;4967552;28;20462;-82
2023/09/05 03:54:38;;;;;;;5.77;3.20;;;;;;;17.60;69.80;155885.78;4967310;28;20549;-82
2023/09/05 03:57:05;;;;;;;4.20;3.10;;;;;;;17.60;70.09;155884.47;4951584;28;20506;-82
2023/09/05 03:59:33;;;;;;;3.77;2.97;;;;;;;17.63;69.89;155892.28;4970069;28;20445;-82
2023/09/05 04:02:02;;;;;;;4.23;3.10;;;;;;;17.62;69.94;155889.66;4965596;28;20887;-83
2023/09/05 04:04:29;;;;;;;2.97;2.60;;;;;;;17.58;70.25;155879.22;4969124;28;20438;-82
2023/09/05 04:06:55;;;;;;;3.70;3.23;;;;;;;17.55;70.17;155871.47;4957791;28;20471;-83
2023/09/05 04:09:22;;;;;;;3.20;2.80;;;;;;;17.51;70.43;155862.28;4974507;28;20561;-82
2023/09/05 04:11:48;;;;;;;4.10;3.13;;;;;;;17.51;70.59;155860.97;4977819;28;20825;-83
2023/09/05 04:14:15;;;;;;;3.73;3.03;;;;;;;17.49;70.89;155857.09;4975845;28;20455;-83
2023/09/05 04:16:43;;;;;;;3.53;3.23;;;;;;;17.52;70.54;155863.59;4975261;28;20470;-82
2023/09/05 04:19:10;;;;;;;3.37;3.00;;;;;;;17.43;70.90;155841.44;4958240;28;20457;-82
2023/09/05 04:21:37;;;;;;;3.90;3.00;;;;;;;17.37;71.55;155824.50;4969967;28;20461;-83
2023/09/05 04:24:04;;;;;;;3.43;3.13;;;;;;;17.34;71.60;155816.72;4976242;28;20453;-82
2023/09/05 04:26:33;;;;;;;3.90;3.50;;;;;;;17.30;71.74;155807.63;4974974;28;20484;-83
2023/09/05 04:28:59;;;;;;;4.40;3.77;;;;;;;17.44;71.58;155842.75;4972672;28;20529;-82
2023/09/05 04:31:26;;;;;;;3.70;3.30;;;;;;;17.53;71.58;155866.22;4980406;28;20462;-82
2023/09/05 04:33:54;;;;;;;3.57;3.03;;;;;;;17.57;71.40;155876.66;4993081;28;20453;-82
2023/09/05 04:36:22;;;;;;;5.90;3.17;;;;;;;17.63;71.17;155892.28;4998040;28;20479;-83
2023/09/05 04:38:50;;;;;;;7.07;3.57;;;;;;;17.61;71.29;155887.03;4993663;28;20461;-83
2023/09/05 04:41:18;;;;;;;3.60;2.90;;;;;;;17.57;71.24;155876.66;4974616;28;20449;-83
2023/09/05 04:43:45;;;;;;;3.70;3.40;;;;;;;17.55;71.52;155871.47;4989978;28;20459;-82
2023/09/05 04:46:12;;;;;;;3.23;2.80;;;;;;;17.48;71.39;155853.16;4971818;28;20461;-82
2023/09/05 04:48:39;;;;;;;4.17;3.30;;;;;;;17.60;71.63;155884.47;4974946;28;20453;-83
2023/09/05 04:51:07;;;;;;;3.93;3.00;;;;;;;17.47;71.42;155850.56;4984476;28;21156;-84
2023/09/05 04:53:33;;;;;;;3.53;2.87;;;;;;;17.42;72.06;155838.81;4990334;28;20441;-84
2023/09/05 04:56:03;;;;;;;4.23;3.83;;;;;;;17.44;72.17;155842.75;4957112;28;20469;-82
2023/09/05 04:58:30;;;;;;;3.90;3.50;;;;;;;17.49;72.34;155857.09;4968564;28;21197;-82
2023/09/05 05:01:02;;;;;;;3.63;3.13;;;;;;;17.44;72.08;155844.06;4987582;28;20473;-82
2023/09/05 05:03:31;;;;;;;3.20;2.90;;;;;;;17.34;73.16;155818.00;4966822;28;20462;-82
2023/09/05 05:05:57;;;;;;;7.43;3.50;;;;;;;17.36;73.15;155821.94;4964354;28;20520;-73
2023/09/05 05:08:25;;;;;;;3.40;3.10;;;;;;;17.40;73.31;155832.31;4963503;28;20557;-73
2023/09/05 05:10:53;;;;;;;3.93;3.53;;;;;;;17.46;73.14;155847.94;4981330;28;20466;-75
2023/09/05 05:13:22;;;;;;;4.63;3.77;;;;;;;17.46;73.41;155847.94;4982155;28;20462;-77
2023/09/05 05:15:49;;;;;;;3.63;3.17;;;;;;;17.43;73.68;155841.44;4978507;28;21145;-78
2023/09/05 05:18:16;;;;;;;5.60;3.33;;;;;;;17.38;74.02;155828.44;4963137;28;20461;-77
2023/09/05 05:20:42;;;;;;;3.60;3.00;;;;;;;17.44;73.69;155844.06;4978182;28;20456;-78
2023/09/05 05:23:09;;;;;;;3.40;2.90;;;;;;;17.57;73.46;155877.97;4963219;28;20485;-77
2023/09/05 05:25:38;;;;;;;4.20;3.57;;;;;;;17.64;73.00;155896.16;4978787;28;20577;-77
2023/09/05 05:28:05;;;;;;;4.97;3.00;;;;;;;17.68;72.79;155905.28;4981320;28;20465;-77
2023/09/05 05:30:35;;;;;;;3.90;3.50;;;;;;;17.75;72.77;155922.19;4981371;28;20478;-78
2023/09/05 05:33:02;;;;;;;4.40;3.37;;;;;;;17.70;73.02;155909.19;4978854;28;20462;-77
2023/09/05 05:35:28;;;;;;;4.57;3.00;;;;;;;17.71;73.30;155911.81;4963971;28;20469;-78
2023/09/05 05:37:55;;;;;;;3.20;2.90;;;;;;;17.73;73.99;155918.31;4979671;28;20453;-78
2023/09/05 05:40:21;;;;;;;3.33;2.90;;;;;;;17.79;73.76;155933.91;4979734;28;20467;-77
2023/09/05 05:42:49;;;;;;;4.43;3.50;;;;;;;17.97;72.91;155980.81;4962302;28;20472;-77
2023/09/05 05:45:16;;;;;;;4.40;3.20;;;;;;;17.98;73.15;155983.38;4962933;28;20461;-77
2023/09/05 05:47:43;;;;;;;4.63;3.17;;;;;;;18.07;72.58;156006.84;4981903;28;20445;-78
2023/09/05 05:50:10;;;;;;;3.60;3.00;;;;;;;18.21;72.01;156042.00;4979683;28;20474;-78
2023/09/05 05:52:38;;;;;;;4.43;3.43;;;;;;;18.37;72.04;156082.38;4960965;28;20453;-74
2023/09/05 05:55:07;;;;;;;3.20;2.90;;;;;;;18.59;70.52;156139.72;4961771;28;20675;-85
2023/09/05 05:57:34;;;;;;;3.47;2.97;;;;;;;18.72;70.32;156173.59;4964132;28;20456;-86
2023/09/05 06:00:04;;;;;;;5.93;3.37;;;;;;;18.84;69.66;156204.88;4959052;28;20798;-86
2023/09/05 06:02:39;;;;;;;4.57;3.00;;;;;;;18.99;68.71;156243.97;4975813;28;20446;-83
2023/09/05 06:05:07;;;;;;;5.57;3.43;;;;;;;19.09;67.93;156270.00;4958811;28;20635;-80
2023/09/05 06:07:34;;;;;;;3.20;2.80;;;;;;;19.12;67.73;156277.84;4972125;28;20825;-79
2023/09/05 06:10:06;;;;;;;3.43;3.13;;;;;;;19.17;66.93;156290.88;4957539;28;20470;-81
2023/09/05 06:12:33;;;;;;;6.40;3.33;;;;;;;19.30;67.57;156324.75;4976291;28;20474;-80
2023/09/05 06:14:59;;;;;;;3.97;3.23;;;;;;;19.47;66.28;156367.81;4974800;28;20473;-80
2023/09/05 06:17:27;;;;;;;5.40;3.40;;;;;;;19.55;66.74;156387.38;4977215;28;20545;-81
2023/09/05 06:19:54;;;;;;;3.00;2.70;;;;;;;19.66;66.28;156416.06;4957742;28;20459;-80
2023/09/05 06:22:20;;;;;;;3.80;3.47;;;;;;;19.72;65.34;156433.03;4977397;28;20452;-80
2023/09/05 06:24:47;;;;;;;4.30;3.00;;;;;;;19.76;65.16;156443.44;4959675;28;20455;-80
2023/09/05 06:27:13;;;;;;;4.27;3.43;;;;;;;19.85;65.74;156465.63;4958746;28;20462;-81
2023/09/05 06:29:40;;;;;;;5.80;3.20;;;;;;;20.00;64.36;156504.72;4979368;28;20945;-81
2023/09/05 06:32:06;;;;;;;3.13;2.83;;;;;;;20.10;64.98;156529.47;4975461;28;20459;-81
2023/09/05 06:34:35;;;;;;;3.17;2.70;;;;;;;20.30;64.76;156583.03;4977362;28;20481;-79
2023/09/05 06:37:01;;;;;;;4.47;3.20;;;;;;;20.34;64.38;156593.44;4958617;28;20578;-79
2023/09/05 06:39:28;;;;;;;3.50;3.13;;;;;;;20.43;64.07;156616.94;4972676;28;20556;-79
2023/09/05 06:41:54;;;;;;;3.50;3.07;;;;;;;20.50;63.23;156633.88;4974121;28;20454;-80
2023/09/05 06:44:30;;;;;;;3.40;2.93;;;;;;;20.61;63.16;156663.91;4980600;28;20489;-80
2023/09/05 06:46:56;;;;;;;3.50;2.73;;;;;;;20.71;63.70;156687.34;4959452;28;20551;-80
2023/09/05 06:49:23;;;;;;;3.10;2.80;;;;;;;20.83;62.91;156718.69;4992105;28;20458;-79
2023/09/05 06:51:51;;;;;;;4.30;3.30;;;;;;;20.95;62.79;156750.00;4960373;28;20541;-79
2023/09/05 06:54:17;;;;;;;3.63;3.10;;;;;;;21.05;61.58;156776.06;4956731;28;20461;-79
2023/09/05 06:56:44;;;;;;;3.50;3.00;;;;;;;21.08;62.73;156783.97;4971278;28;20464;-79
2023/09/05 06:59:17;;;;;;;4.53;3.33;;;;;;;21.20;62.47;156815.31;4973135;28;20486;-80
2023/09/05 07:01:43;;;;;;;4.23;2.93;;;;;;;21.20;61.70;156816.63;4975158;28;20989;-79
2023/09/05 07:04:10;;;;;;;3.23;2.80;;;;;;;21.33;61.72;156849.25;4972464;28;20483;-83
2023/09/05 07:06:39;;;;;;;6.43;2.77;;;;;;;21.41;62.27;156870.13;4959247;28;20492;-80
2023/09/05 07:09:07;;;;;;;3.53;2.90;;;;;;;21.47;61.95;156884.50;4977096;28;20461;-79
2023/09/05 07:11:34;;;;;;;3.30;2.53;;;;;;;21.55;61.02;156906.66;4976927;28;20478;-79
2023/09/05 07:14:01;;;;;;;4.27;3.10;;;;;;;21.57;60.02;156910.59;4972550;28;20954;-79
2023/09/05 07:16:27;;;;;;;3.77;3.17;;;;;;;21.49;60.57;156891.03;4960493;28;20464;-79
2023/09/05 07:18:54;;;;;;;3.60;3.30;;;;;;;21.49;60.23;156891.03;4975458;28;20534;-78
2023/09/05 07:21:20;;;;;;;3.20;2.90;;;;;;;21.55;60.51;156906.66;4980409;28;20464;-78
2023/09/05 07:23:47;;;;;;;3.10;2.80;;;;;;;21.58;60.65;156914.47;4978185;28;20497;-78
2023/09/05 07:26:15;;;;;;;4.87;2.93;;;;;;;21.64;60.76;156930.16;4962166;28;20828;-79
2023/09/05 07:28:42;;;;;;;3.00;2.70;;;;;;;21.68;59.39;156940.59;4976571;28;21353;-78
2023/09/05 07:31:10;;;;;;;4.20;3.40;;;;;;;21.69;60.33;156943.22;4959668;28;21478;-78
2023/09/05 07:33:37;;;;;;;4.77;3.10;;;;;;;21.57;59.77;156911.91;4962335;28;20508;-78
2023/09/05 07:36:04;;;;;;;3.73;3.17;;;;;;;21.65;60.16;156932.78;4961843;28;20468;-78
2023/09/05 07:38:30;;;;;;;3.70;2.90;;;;;;;21.80;59.57;156971.94;4955636;28;20455;-79
2023/09/05 07:41:03;;;;;;;4.37;3.63;;;;;;;21.87;59.93;156987.69;4961025;28;20469;-78
2023/09/05 07:43:32;;;;;;;3.43;2.97;;;;;;;21.88;58.74;156991.56;4979459;28;20459;-79
2023/09/05 07:45:59;;;;;;;4.50;2.90;;;;;;;21.96;59.94;157011.16;4975198;28;20977;-79
2023/09/05 07:48:28;;;;;;;3.43;3.10;;;;;;;22.09;58.53;157046.41;4961000;28;20461;-79
2023/09/05 07:51:01;;;;;;;3.80;3.20;;;;;;;22.00;58.48;157021.63;4975822;28;20470;-79
2023/09/05 07:53:29;;;;;;;3.47;2.73;;;;;;;22.13;58.17;157055.56;4962600;28;20536;-79
2023/09/05 07:55:56;;;;;;;3.67;2.80;;;;;;;22.20;59.66;157073.84;4974314;28;20458;-79
2023/09/05 07:58:23;;;;;;;3.10;2.70;;;;;;;22.28;59.96;157094.75;4959687;28;20458;-83
2023/09/05 08:00:52;;;;;;;3.80;3.13;;;;;;;22.50;60.31;157152.22;4961190;28;20460;-79
2023/09/05 08:03:19;;;;;;;4.97;3.27;;;;;;;22.61;59.02;157180.94;4974984;28;20450;-79
2023/09/05 08:05:46;;;;;;;3.20;2.80;;;;;;;22.68;59.77;157197.97;4973106;28;20480;-79
2023/09/05 08:08:13;;;;;;;3.63;3.07;;;;;;;22.73;57.57;157212.34;4973794;28;20481;-79
2023/09/05 08:10:40;;;;;;;5.13;3.40;;;;;;;22.82;58.43;157235.84;4978061;28;20477;-79
2023/09/05 08:13:07;;;;;;;3.17;2.87;;;;;;;22.94;57.97;157267.25;4979695;28;20564;-83
2023/09/05 08:15:36;;;;;;;3.63;2.93;;;;;;;23.10;57.75;157306.41;4958384;28;20472;-83
2023/09/05 08:18:04;;;;;;;3.80;2.80;;;;;;;23.01;56.71;157285.50;4977785;28;20542;-82
2023/09/05 08:20:31;;;;;;;3.30;2.87;;;;;;;23.05;57.21;157294.69;4957302;28;20466;-82
2023/09/05 08:22:59;;;;;;;3.23;2.60;;;;;;;23.20;58.08;157332.53;4959278;28;21024;-83
2023/09/05 08:25:26;;;;;;;3.53;3.20;;;;;;;23.32;55.72;157365.25;4973775;28;20588;-82
2023/09/05 08:27:53;;;;;;;3.60;3.30;;;;;;;23.37;56.52;157377.06;4971134;28;21011;-82
2023/09/05 08:30:24;;;;;;;3.83;3.43;;;;;;;23.47;56.72;157404.50;4957397;28;20461;-82
2023/09/05 08:32:50;;;;;;;4.37;3.00;;;;;;;23.51;56.83;157413.69;4976405;28;20446;-82
2023/09/05 08:35:19;;;;;;;3.17;2.87;;;;;;;23.57;55.39;157430.63;4955769;28;20977;-83
2023/09/05 08:37:45;;;;;;;3.93;3.07;;;;;;;23.60;55.49;157437.16;4974225;28;20818;-83
2023/09/05 08:40:13;;;;;;;3.90;3.10;;;;;;;23.69;55.00;157460.72;4956523;28;20474;-83
2023/09/05 08:42:40;;;;;;;3.20;2.90;;;;;;;23.74;54.82;157473.78;4959408;28;21190;-82
2023/09/05 08:45:11;;;;;;;3.47;3.13;;;;;;;23.75;55.82;157476.38;4975688;28;20903;-82
2023/09/05 08:47:38;;;;;;;3.20;2.90;;;;;;;23.88;55.37;157510.38;4979558;28;20993;-83
2023/09/05 08:50:08;;;;;;;3.13;2.83;;;;;;;23.87;55.38;157506.47;4973636;28;20465;-83
2023/09/05 08:52:38;;;;;;;2.90;2.60;;;;;;;24.02;54.77;157547.00;4960263;28;21058;-83
2023/09/05 08:55:07;;;;;;;3.03;2.73;;;;;;;23.89;54.39;157513.00;4976002;28;20467;-83
2023/09/05 08:57:35;;;;;;;3.53;2.70;;;;;;;23.99;54.14;157539.13;4964847;28;20461;-83
2023/09/05 09:00:04;;;;;;;3.13;2.80;;;;;;;24.04;54.32;157550.94;4963655;28;20454;-83
2023/09/05 09:02:31;;;;;;;3.27;2.70;;;;;;;23.97;54.39;157533.91;4978240;28;21108;-84
2023/09/05 09:04:57;;;;;;;2.80;2.60;;;;;;;24.07;55.54;157558.75;4962557;28;21192;-83
2023/09/05 09:07:27;;;;;;;3.57;3.00;;;;;;;24.26;54.83;157608.50;4948221;28;20454;-83
2023/09/05 09:09:55;;;;;;;3.37;2.77;;;;;;;24.20;53.55;157592.78;4978364;28;21016;-84
2023/09/05 09:12:28;;;;;;;3.10;2.83;;;;;;;24.15;53.29;157579.72;4960405;28;20473;-83
2023/09/05 09:14:54;;;;;;;3.47;3.00;;;;;;;24.03;53.36;157548.31;4978789;28;20475;-83
2023/09/05 09:17:23;;;;;;;3.70;3.30;;;;;;;24.00;53.24;157540.47;4981032;28;20491;-83
2023/09/05 09:19:50;;;;;;;5.10;2.90;;;;;;;24.01;55.23;157543.09;4980882;28;20445;-84
2023/09/05 09:22:23;;;;;;;3.20;2.90;;;;;;;23.86;54.60;157505.16;4981806;28;20818;-83
2023/09/05 09:24:49;;;;;;;3.57;2.90;;;;;;;23.86;54.34;157503.84;4961893;28;20458;-84
2023/09/05 09:27:18;;;;;;;4.00;3.33;;;;;;;23.79;54.73;157486.88;4965801;28;20468;-83
2023/09/05 09:29:53;;;;;;;3.70;3.00;;;;;;;23.79;54.12;157485.53;4976983;28;20525;-83
2023/09/05 09:32:20;;;;;;;3.10;2.80;;;;;;;23.84;55.72;157499.94;4968703;28;21022;-83
2023/09/05 09:34:47;;;;;;;3.13;2.53;;;;;;;23.83;54.89;157497.28;4978320;28;20454;-84
2023/09/05 09:37:24;;;;;;;2.80;2.60;;;;;;;23.78;54.53;157484.22;4965739;28;20456;-84
2023/09/05 09:39:51;;;;;;;2.83;2.63;;;;;;;23.88;55.59;157509.09;4961354;28;20986;-84
2023/09/05 09:42:26;;;;;;;7.40;2.57;;;;;;;23.95;54.00;157528.69;4979421;28;20466;-84
2023/09/05 09:44:53;;;;;;;3.00;2.70;;;;;;;23.82;54.00;157494.72;4977543;28;20466;-84
2023/09/05 09:47:19;;;;;;;5.90;2.63;;;;;;;23.91;54.83;157518.22;4961915;28;20456;-84
2023/09/05 09:49:49;;;;;;;3.20;2.90;;;;;;;23.91;54.56;157516.91;4980440;28;20481;-84
2023/09/05 09:52:17;;;;;;;3.17;2.70;;;;;;;23.85;55.54;157502.56;4976325;28;20868;-84
2023/09/05 09:54:45;;;;;;;5.63;3.00;;;;;;;23.85;54.02;157502.56;4979911;28;21013;-84
2023/09/05 09:57:16;;;;;;;2.53;2.33;;;;;;;23.89;54.37;157513.00;4980112;28;20872;-84
2023/09/05 09:59:49;;;;;;;3.30;2.80;;;;;;;23.96;54.06;157531.28;4966470;28;20466;-83
2023/09/05 10:02:17;;;;;;;2.57;2.37;;;;;;;23.92;54.99;157520.84;4984810;28;20452;-84
2023/09/05 10:04:46;;;;;;;3.03;2.60;;;;;;;23.99;53.80;157539.13;4976188;28;20505;-83
2023/09/05 10:07:14;;;;;;;2.80;2.53;;;;;;;23.85;54.52;157501.25;4981169;28;20448;-84
2023/09/05 10:09:42;;;;;;;6.23;3.23;;;;;;;23.87;54.11;157507.78;4973760;28;20794;-84
2023/09/05 10:12:09;;;;;;;3.67;2.70;;;;;;;23.81;54.02;157490.75;4975994;28;20473;-84
2023/09/05 10:14:37;;;;;;;3.00;2.13;;;;;;;23.78;53.81;157484.22;4959738;28;20458;-84
2023/09/05 10:17:05;;;;;;;2.67;2.47;;;;;;;23.80;53.89;157489.44;4977248;28;20450;-84
2023/09/05 10:19:33;;;;;;;2.60;2.40;;;;;;;23.83;54.80;157497.28;4978361;28;20505;-83
2023/09/05 10:22:00;;;;;;;2.77;2.07;;;;;;;23.85;53.96;157502.56;4959532;28;20558;-84
2023/09/05 10:24:29;;;;;;;2.87;2.57;;;;;;;23.84;54.00;157498.63;4959940;28;20924;-83
2023/09/05 10:26:56;;;;;;;3.50;2.70;;;;;;;23.94;54.33;157526.06;4981469;28;20466;-83
2023/09/05 10:29:33;;;;;;;2.37;2.17;;;;;;;23.96;53.89;157531.28;4960098;28;20549;-83
2023/09/05 10:32:00;;;;;;;3.13;2.70;;;;;;;24.00;53.63;157540.47;4975760;28;20471;-83
2023/09/05 10:35:01;;;;;;;3.07;2.60;;;;;;;23.96;53.50;157531.28;4993355;28;20567;-83
2023/09/05 10:37:39;;;;;;;2.53;2.30;;;;;;;24.02;54.85;157547.00;4944012;28;20472;-83
2023/09/05 10:40:08;;;;;;;2.90;2.50;;;;;;;24.06;53.54;157557.47;4974924;28;20451;-83
2023/09/05 10:42:38;;;;;;;2.70;2.27;;;;;;;24.14;51.91;157578.47;4959525;28;20529;-83
2023/09/05 10:45:17;;;;;;;4.00;2.60;;;;;;;24.20;53.48;157594.09;4944723;28;20596;-83
2023/09/05 10:47:44;;;;;;;4.43;2.40;;;;;;;24.17;53.31;157585.00;4976101;28;20472;-83
2023/09/05 10:50:15;;;;;;;3.57;2.70;;;;;;;24.18;53.05;157587.56;4978404;28;20442;-84
2023/09/05 10:52:42;;;;;;;3.43;2.20;;;;;;;24.17;52.88;157586.25;4975847;28;20557;-83
2023/09/05 10:55:40;;;;;;;2.57;2.37;;;;;;;24.15;53.04;157581.03;4974793;28;20454;-84
2023/09/05 10:58:36;;;;;;;3.87;2.40;;;;;;;24.17;53.35;157586.25;4963440;28;20462;-83
2023/09/05 11:01:44;;;;;;;2.50;2.30;;;;;;;24.22;52.56;157599.31;4964974;28;20794;-83
2023/09/05 11:04:24;;;;;;;2.40;2.20;;;;;;;24.28;52.15;157612.44;4976099;28;20461;-82
2023/09/05 11:07:06;;;;;;;2.67;2.20;;;;;;;24.27;52.17;157609.81;4978134;28;20448;-83
2023/09/05 11:09:49;;;;;;;3.13;2.20;;;;;;;24.28;52.76;157613.72;4960235;28;20463;-82
2023/09/05 11:12:17;;;;;;;2.07;1.87;;;;;;;24.32;52.76;157622.88;4976720;28;20482;-82
2023/09/05 11:14:44;;;;;;;2.27;2.07;;;;;;;24.26;52.55;157607.19;4975986;28;20513;-82
2023/09/05 11:17:15;;;;;;;2.50;2.00;;;;;;;24.26;51.46;157607.19;4975472;28;20858;-83
2023/09/05 11:19:45;;;;;;;2.90;2.20;;;;;;;24.32;51.27;157622.88;4957339;28;20830;-83
2023/09/05 11:22:15;;;;;;;2.80;2.17;;;;;;;24.43;51.81;157651.69;4945031;28;20444;-83
2023/09/05 11:24:47;;;;;;;2.43;2.23;;;;;;;24.51;51.39;157673.94;4977433;28;20460;-83
2023/09/05 11:27:16;;;;;;;2.70;2.03;;;;;;;24.65;51.75;157710.50;4974533;28;20485;-83
2023/09/05 11:29:45;;;;;;;3.07;2.30;;;;;;;24.68;50.65;157717.06;4959526;28;20457;-83